Time;durP1;ratioP1;P1;durP2;ratioP2;P2;SDS_P1;SDS_P2;PMS_P1;PMS_P2;Temp;Humidity;BMP_temperature;BMP_pressure;BME280_temperature;BME280_humidity;BME280_pressure;Samples;Min_cycle;Max_cycle;Signal;HPM_P1;HPM_P2
2023/10/19 00:00:50;;;;;;;4.57;3.65;;;13.00;99.90;;;;;;7397040;19;20210;-79
2023/10/19 00:03:19;;;;;;;4.72;3.22;;;13.00;99.90;;;;;;7395230;19;20652;-78
2023/10/19 00:05:46;;;;;;;4.57;3.40;;;13.10;99.90;;;;;;7393266;19;20241;-79
2023/10/19 00:10:42;;;;;;;4.93;3.15;;;13.20;99.90;;;;;;7390832;19;20182;-78
2023/10/19 00:13:11;;;;;;;3.95;2.97;;;13.10;99.90;;;;;;7396805;19;20145;-79
2023/10/19 00:15:48;;;;;;;3.10;2.42;;;12.90;99.90;;;;;;7393830;19;20493;-79
2023/10/19 00:23:28;;;;;;;3.03;2.50;;;13.00;99.90;;;;;;7391959;19;20142;-79
2023/10/19 00:25:55;;;;;;;3.42;2.92;;;13.00;99.90;;;;;;7394589;19;20146;-79
2023/10/19 00:28:22;;;;;;;4.30;3.40;;;13.20;99.90;;;;;;7393359;19;20772;-77
2023/10/19 00:30:49;;;;;;;4.28;3.40;;;13.20;99.90;;;;;;7394027;19;20127;-80
2023/10/19 00:33:20;;;;;;;3.83;3.40;;;13.30;99.90;;;;;;7384551;19;20138;-78
2023/10/19 00:35:47;;;;;;;4.13;3.53;;;13.30;99.90;;;;;;7391854;19;20150;-79
2023/10/19 00:38:39;;;;;;;4.20;3.17;;;13.30;99.90;;;;;;7393889;19;20149;-80
2023/10/19 00:43:38;;;;;;;3.53;3.00;;;13.30;99.90;;;;;;7393738;19;20170;-78
2023/10/19 00:46:08;;;;;;;3.30;2.88;;;13.40;99.90;;;;;;7393284;19;20135;-78
2023/10/19 00:48:34;;;;;;;3.78;3.30;;;13.40;99.90;;;;;;7391260;19;20139;-78
2023/10/19 00:51:09;;;;;;;3.63;2.38;;;13.40;99.90;;;;;;7394295;19;20175;-78
2023/10/19 00:53:39;;;;;;;2.72;2.10;;;13.20;99.90;;;;;;7389169;19;20146;-76
2023/10/19 00:56:09;;;;;;;2.53;1.63;;;13.10;99.90;;;;;;7392961;19;20245;-78
2023/10/19 00:58:36;;;;;;;2.28;1.83;;;13.00;99.90;;;;;;7390103;19;20266;-79
2023/10/19 01:01:05;;;;;;;2.15;1.55;;;13.00;99.90;;;;;;7393662;19;20177;-78
2023/10/19 01:03:36;;;;;;;3.38;2.05;;;13.10;99.90;;;;;;7391799;19;20138;-79
2023/10/19 01:06:09;;;;;;;3.88;2.00;;;13.10;99.90;;;;;;7390000;19;20189;-78
2023/10/19 01:08:41;;;;;;;2.58;1.83;;;13.10;99.90;;;;;;7394386;19;20168;-79
2023/10/19 01:11:11;;;;;;;2.17;1.90;;;13.40;99.90;;;;;;7390868;19;20227;-78
2023/10/19 01:13:50;;;;;;;2.83;1.83;;;13.40;99.90;;;;;;7392038;19;20146;-77
2023/10/19 01:16:23;;;;;;;2.13;1.77;;;13.40;99.90;;;;;;7390662;19;20206;-79
2023/10/19 01:18:53;;;;;;;2.00;1.70;;;13.50;99.90;;;;;;7387795;19;20127;-78
2023/10/19 01:21:37;;;;;;;2.75;2.08;;;13.50;99.90;;;;;;7394833;19;20143;-79
2023/10/19 01:24:08;;;;;;;1.70;1.35;;;13.60;99.90;;;;;;7393350;19;20138;-79
2023/10/19 01:26:37;;;;;;;1.70;1.60;;;13.50;99.90;;;;;;7388631;19;20134;-80
2023/10/19 01:29:13;;;;;;;1.45;1.35;;;13.40;99.90;;;;;;7391947;19;20214;-77
2023/10/19 01:31:50;;;;;;;1.80;1.58;;;13.40;99.90;;;;;;7390630;19;20527;-78
2023/10/19 01:34:19;;;;;;;3.92;2.60;;;13.50;99.90;;;;;;7393092;19;20158;-79
2023/10/19 01:36:49;;;;;;;3.10;2.17;;;13.60;99.90;;;;;;7389797;19;20616;-78
2023/10/19 01:39:18;;;;;;;4.03;2.90;;;13.60;99.90;;;;;;7391354;19;20149;-79
2023/10/19 01:41:45;;;;;;;3.67;2.83;;;13.60;99.90;;;;;;7389475;19;20130;-79
2023/10/19 01:44:13;;;;;;;3.45;2.50;;;13.60;99.90;;;;;;7391829;19;20161;-79
2023/10/19 01:46:39;;;;;;;3.53;2.80;;;13.50;99.90;;;;;;7391096;19;20648;-78
2023/10/19 01:49:08;;;;;;;3.53;2.75;;;13.50;99.90;;;;;;7383966;19;20138;-78
2023/10/19 01:51:42;;;;;;;4.33;3.33;;;13.60;99.90;;;;;;7391320;19;20139;-79
2023/10/19 01:54:08;;;;;;;3.43;2.57;;;13.50;99.90;;;;;;7392562;19;20191;-79
2023/10/19 01:56:35;;;;;;;3.13;2.75;;;13.50;99.90;;;;;;7389239;19;20465;-79
2023/10/19 01:59:03;;;;;;;4.10;3.20;;;13.50;99.90;;;;;;7391532;19;20218;-78
2023/10/19 02:01:31;;;;;;;4.27;3.37;;;13.60;99.90;;;;;;7390328;19;20143;-80
2023/10/19 02:04:03;;;;;;;3.97;3.30;;;13.50;99.90;;;;;;7391245;19;20159;-79
2023/10/19 02:12:05;;;;;;;2.73;2.50;;;13.60;99.90;;;;;;7386695;19;20142;-79
2023/10/19 02:14:31;;;;;;;6.00;2.97;;;13.60;99.90;;;;;;7388868;19;20173;-78
2023/10/19 02:17:03;;;;;;;3.90;2.92;;;13.50;99.90;;;;;;7390713;19;20143;-80
2023/10/19 02:19:29;;;;;;;4.30;3.53;;;13.50;99.90;;;;;;7391206;19;20145;-78
2023/10/19 02:21:58;;;;;;;4.00;3.03;;;13.60;99.90;;;;;;7390315;19;20585;-79
2023/10/19 02:24:25;;;;;;;4.20;3.40;;;13.60;99.90;;;;;;7392228;19;20563;-78
2023/10/19 02:26:53;;;;;;;4.35;2.97;;;13.60;99.90;;;;;;7388768;19;20147;-78
2023/10/19 02:29:19;;;;;;;5.03;2.83;;;13.60;99.90;;;;;;7390017;19;20483;-78
2023/10/19 02:31:47;;;;;;;3.75;2.83;;;13.70;99.90;;;;;;7388440;19;20161;-79
2023/10/19 02:34:15;;;;;;;3.97;3.03;;;13.70;99.90;;;;;;7388831;19;20139;-82
2023/10/19 02:36:41;;;;;;;3.22;2.78;;;13.70;99.90;;;;;;7390162;19;20145;-81
2023/10/19 02:39:09;;;;;;;4.00;3.10;;;13.70;99.90;;;;;;7390990;19;20551;-78
2023/10/19 02:41:41;;;;;;;4.60;2.90;;;13.70;99.90;;;;;;7389272;19;20655;-78
2023/10/19 02:46:44;;;;;;;3.40;2.70;;;13.70;99.90;;;;;;7389528;19;20146;-78
2023/10/19 02:49:18;;;;;;;3.33;2.83;;;13.70;99.90;;;;;;7388433;19;20588;-80
2023/10/19 02:51:45;;;;;;;3.07;2.77;;;13.70;99.90;;;;;;7389526;19;20253;-76
2023/10/19 02:54:19;;;;;;;4.72;3.40;;;13.70;99.90;;;;;;7388982;19;20138;-79
2023/10/19 02:56:49;;;;;;;3.80;2.78;;;13.60;99.90;;;;;;7387664;19;20133;-78
2023/10/19 02:59:16;;;;;;;4.32;3.58;;;13.60;99.90;;;;;;7390305;19;20135;-81
2023/10/19 03:01:45;;;;;;;4.30;3.40;;;13.50;99.90;;;;;;7390419;19;20150;-79
2023/10/19 03:04:15;;;;;;;3.83;3.37;;;13.40;99.90;;;;;;7389130;19;20221;-80
2023/10/19 03:06:41;;;;;;;4.72;3.33;;;13.50;99.90;;;;;;7387372;19;20170;-79
2023/10/19 03:09:28;;;;;;;5.00;3.13;;;13.40;99.90;;;;;;7388357;19;20137;-80
2023/10/19 03:11:59;;;;;;;4.60;3.63;;;13.30;99.90;;;;;;7390881;19;20165;-78
2023/10/19 03:14:26;;;;;;;5.57;3.93;;;13.30;99.90;;;;;;7386243;19;20218;-79
2023/10/19 03:16:55;;;;;;;5.00;3.63;;;13.40;99.90;;;;;;7389378;19;20142;-78
2023/10/19 03:19:21;;;;;;;4.85;3.63;;;13.20;99.90;;;;;;7389806;19;20139;-79
2023/10/19 03:21:50;;;;;;;4.90;3.60;;;13.20;99.90;;;;;;7387540;19;20190;-80
2023/10/19 03:27:23;;;;;;;4.50;3.55;;;13.10;99.90;;;;;;7388322;19;20130;-81
2023/10/19 03:29:54;;;;;;;4.72;3.45;;;13.20;99.90;;;;;;7388701;19;20221;-78
2023/10/19 03:32:28;;;;;;;5.00;3.63;;;13.30;99.90;;;;;;7387005;19;20482;-78
2023/10/19 03:34:55;;;;;;;4.22;3.22;;;13.30;99.90;;;;;;7387902;19;20146;-79
2023/10/19 03:37:25;;;;;;;3.90;3.22;;;13.20;99.90;;;;;;7388681;19;20494;-79
2023/10/19 03:39:51;;;;;;;3.22;2.90;;;13.10;99.90;;;;;;7388117;19;20147;-79
2023/10/19 03:42:20;;;;;;;4.75;3.47;;;13.10;99.90;;;;;;7389502;19;20131;-79
2023/10/19 03:47:19;;;;;;;3.22;2.53;;;13.30;99.90;;;;;;7387853;19;20127;-79
2023/10/19 03:49:46;;;;;;;3.08;2.38;;;13.20;99.90;;;;;;7388561;19;20141;-78
2023/10/19 03:54:39;;;;;;;4.32;3.38;;;13.40;99.90;;;;;;7389452;19;20134;-79
2023/10/19 03:57:29;;;;;;;4.40;2.95;;;13.40;99.90;;;;;;7389596;19;20536;-79
2023/10/19 03:59:59;;;;;;;4.72;3.45;;;13.40;99.90;;;;;;7386505;19;20142;-80
2023/10/19 04:02:35;;;;;;;4.20;3.33;;;13.40;99.90;;;;;;7387894;19;20142;-78
2023/10/19 04:05:03;;;;;;;4.43;3.30;;;13.40;99.90;;;;;;7388694;19;20242;-80
2023/10/19 04:07:31;;;;;;;3.13;2.78;;;13.30;99.90;;;;;;7383936;19;20447;-80
2023/10/19 04:12:35;;;;;;;4.70;3.28;;;13.40;99.90;;;;;;7386211;19;20664;-81
2023/10/19 04:15:10;;;;;;;4.07;3.13;;;13.30;99.90;;;;;;7390823;19;20556;-80
2023/10/19 04:17:40;;;;;;;4.38;3.40;;;13.30;99.90;;;;;;7389052;19;20205;-80
2023/10/19 04:22:45;;;;;;;3.78;2.55;;;13.30;99.90;;;;;;7390691;19;20168;-81
2023/10/19 04:25:12;;;;;;;4.20;2.83;;;13.30;99.90;;;;;;7385610;19;20424;-82
2023/10/19 04:27:42;;;;;;;4.07;3.10;;;13.30;99.90;;;;;;7390109;19;20151;-81
2023/10/19 04:30:21;;;;;;;3.90;3.10;;;13.30;99.90;;;;;;7387442;19;20131;-83
2023/10/19 04:32:49;;;;;;;4.25;2.50;;;13.30;99.90;;;;;;7394654;19;20206;-82
2023/10/19 04:35:22;;;;;;;3.10;2.80;;;13.30;99.90;;;;;;7395579;19;20162;-83
2023/10/19 04:37:52;;;;;;;3.38;2.75;;;13.10;99.90;;;;;;7394319;19;20147;-81
2023/10/19 04:40:19;;;;;;;4.07;3.25;;;13.20;99.90;;;;;;7395889;19;20604;-82
2023/10/19 04:42:45;;;;;;;4.32;3.58;;;13.30;99.90;;;;;;7398052;19;20472;-80
2023/10/19 04:45:12;;;;;;;3.67;3.13;;;13.30;99.90;;;;;;7392817;19;20615;-81
2023/10/19 04:47:38;;;;;;;3.85;2.97;;;13.30;99.90;;;;;;7397406;19;20206;-81
2023/10/19 04:50:06;;;;;;;3.40;2.88;;;13.30;99.90;;;;;;7397456;19;20139;-82
2023/10/19 04:52:32;;;;;;;3.33;2.95;;;13.30;99.90;;;;;;7395950;19;20143;-83
2023/10/19 04:54:59;;;;;;;4.97;3.80;;;13.30;99.90;;;;;;7396100;19;20665;-76
2023/10/19 04:57:25;;;;;;;5.43;2.97;;;13.20;99.90;;;;;;7397271;19;20760;-82
2023/10/19 04:59:51;;;;;;;3.75;2.75;;;13.20;99.90;;;;;;7394909;19;20143;-81
2023/10/19 05:02:17;;;;;;;5.13;3.60;;;13.30;99.90;;;;;;7394164;19;20193;-82
2023/10/19 05:04:45;;;;;;;3.77;2.50;;;13.30;99.90;;;;;;7394639;19;20506;-81
2023/10/19 05:07:16;;;;;;;3.45;3.05;;;13.30;99.90;;;;;;7394073;19;20184;-83
2023/10/19 05:09:46;;;;;;;4.32;3.30;;;13.30;99.90;;;;;;7394177;19;20151;-83
2023/10/19 05:12:14;;;;;;;3.85;3.25;;;13.40;99.90;;;;;;7395927;19;20438;-78
2023/10/19 05:14:41;;;;;;;3.42;2.85;;;13.40;99.90;;;;;;7393197;19;20131;-81
2023/10/19 05:17:08;;;;;;;4.50;3.27;;;13.30;99.90;;;;;;7395091;19;20652;-81
2023/10/19 05:19:36;;;;;;;3.20;2.88;;;13.30;99.90;;;;;;7394393;19;20155;-81
2023/10/19 05:22:04;;;;;;;5.90;3.35;;;13.30;99.90;;;;;;7395281;19;20158;-81
2023/10/19 05:24:30;;;;;;;6.20;3.20;;;13.20;99.90;;;;;;7393350;19;20496;-81
2023/10/19 05:26:56;;;;;;;3.85;2.97;;;13.30;99.90;;;;;;7392145;19;20168;-81
2023/10/19 05:29:23;;;;;;;6.70;3.55;;;13.20;99.90;;;;;;7394283;19;20161;-81
2023/10/19 05:31:53;;;;;;;4.57;3.15;;;13.20;99.90;;;;;;7389280;19;20153;-81
2023/10/19 05:34:22;;;;;;;4.40;3.50;;;13.30;99.90;;;;;;7393256;19;20239;-82
2023/10/19 05:36:51;;;;;;;3.10;2.77;;;13.30;99.90;;;;;;7392290;19;20222;-82
2023/10/19 05:39:18;;;;;;;3.30;2.67;;;13.30;99.90;;;;;;7393177;19;20726;-81
2023/10/19 05:41:44;;;;;;;3.72;3.00;;;13.30;99.90;;;;;;7390762;19;20155;-83
2023/10/19 05:44:10;;;;;;;3.65;2.63;;;13.30;99.90;;;;;;7392007;19;20159;-83
2023/10/19 05:46:36;;;;;;;3.03;2.53;;;13.30;99.90;;;;;;7391356;19;20154;-82
2023/10/19 05:49:03;;;;;;;4.28;3.00;;;13.30;99.90;;;;;;7392258;19;20213;-82
2023/10/19 05:51:30;;;;;;;3.57;2.87;;;13.20;99.90;;;;;;7392871;19;20164;-82
2023/10/19 05:54:01;;;;;;;3.75;2.78;;;13.00;99.90;;;;;;7391448;19;20142;-80
2023/10/19 05:56:31;;;;;;;2.80;2.25;;;13.20;99.90;;;;;;7394123;19;20834;-81
2023/10/19 05:58:57;;;;;;;2.90;2.60;;;13.30;99.90;;;;;;7395551;19;20161;-82
2023/10/19 06:01:24;;;;;;;3.50;2.77;;;13.30;99.90;;;;;;7391220;19;20217;-81
2023/10/19 06:03:50;;;;;;;2.97;2.47;;;13.40;99.90;;;;;;7392491;19;20146;-80
2023/10/19 06:06:20;;;;;;;3.53;2.75;;;13.40;99.90;;;;;;7392392;19;20603;-82
2023/10/19 06:08:45;;;;;;;3.05;2.58;;;13.50;99.90;;;;;;7392690;19;20145;-79
2023/10/19 06:11:11;;;;;;;3.28;2.75;;;13.40;99.90;;;;;;7392745;19;20227;-79
2023/10/19 06:13:37;;;;;;;3.35;2.95;;;13.30;99.90;;;;;;7392202;19;20135;-80
2023/10/19 06:16:03;;;;;;;3.95;3.17;;;13.40;99.90;;;;;;7393090;19;20764;-82
2023/10/19 06:18:29;;;;;;;7.05;3.67;;;13.40;99.90;;;;;;7389671;19;20158;-82
2023/10/19 06:20:55;;;;;;;4.03;3.10;;;13.40;99.90;;;;;;7390635;19;20211;-81
2023/10/19 06:23:21;;;;;;;4.30;2.80;;;13.40;99.90;;;;;;7390273;19;20138;-81
2023/10/19 06:25:47;;;;;;;3.67;3.13;;;13.40;99.90;;;;;;7390609;19;20168;-80
2023/10/19 06:28:13;;;;;;;5.32;3.63;;;13.40;99.90;;;;;;7389975;19;20786;-76
2023/10/19 06:30:40;;;;;;;3.37;3.00;;;13.50;99.90;;;;;;7392477;19;20207;-81
2023/10/19 06:33:06;;;;;;;4.05;3.08;;;13.50;99.90;;;;;;7391351;19;20524;-79
2023/10/19 06:35:33;;;;;;;3.15;2.72;;;13.60;99.90;;;;;;7391152;19;20142;-83
2023/10/19 06:38:03;;;;;;;3.72;2.95;;;13.50;99.90;;;;;;7390956;19;20218;-82
2023/10/19 06:40:30;;;;;;;3.07;2.73;;;13.60;99.90;;;;;;7389959;19;20156;-81
2023/10/19 06:42:57;;;;;;;4.95;3.30;;;13.60;99.90;;;;;;7392134;19;20134;-82
2023/10/19 06:45:25;;;;;;;7.40;3.00;;;13.60;99.90;;;;;;7390477;19;20131;-81
2023/10/19 06:47:52;;;;;;;3.80;2.95;;;13.60;99.90;;;;;;7392212;19;20142;-82
2023/10/19 06:50:19;;;;;;;3.00;2.60;;;13.60;99.90;;;;;;7388352;19;20150;-81
2023/10/19 06:52:48;;;;;;;3.33;2.90;;;13.50;99.90;;;;;;7390656;19;20147;-82
2023/10/19 06:55:34;;;;;;;3.75;2.50;;;13.50;99.90;;;;;;7386678;19;20612;-81
2023/10/19 06:58:01;;;;;;;3.55;3.00;;;13.60;99.90;;;;;;7392011;19;20126;-79
2023/10/19 07:00:26;;;;;;;5.35;3.97;;;13.80;99.90;;;;;;7390596;19;20153;-81
2023/10/19 07:02:55;;;;;;;5.70;3.67;;;13.80;99.90;;;;;;7388727;19;20135;-81
2023/10/19 07:05:23;;;;;;;4.40;3.47;;;13.80;99.90;;;;;;7390890;19;20591;-82
2023/10/19 07:07:51;;;;;;;5.40;3.30;;;13.70;99.90;;;;;;7390365;19;20539;-81
2023/10/19 07:10:19;;;;;;;3.00;2.70;;;13.80;99.90;;;;;;7389087;19;20146;-81
2023/10/19 07:12:47;;;;;;;3.33;2.92;;;13.90;99.90;;;;;;7389241;19;20147;-80
2023/10/19 07:15:13;;;;;;;3.60;2.65;;;13.90;99.90;;;;;;7391088;19;20158;-80
2023/10/19 07:17:43;;;;;;;4.97;3.03;;;14.00;99.90;;;;;;7390230;19;20473;-83
2023/10/19 07:20:27;;;;;;;4.88;3.30;;;13.90;99.90;;;;;;7393321;19;20135;-84
2023/10/19 07:22:57;;;;;;;4.47;3.50;;;14.00;99.90;;;;;;7389200;19;20149;-78
2023/10/19 07:25:25;;;;;;;4.05;2.80;;;14.00;99.90;;;;;;7388715;19;20139;-80
2023/10/19 07:27:52;;;;;;;5.47;3.15;;;14.00;99.90;;;;;;7389413;19;20519;-81
2023/10/19 07:30:26;;;;;;;3.67;3.03;;;14.10;99.90;;;;;;7389359;19;20146;-79
2023/10/19 07:32:58;;;;;;;4.70;3.75;;;13.90;99.90;;;;;;7389664;19;20147;-82
2023/10/19 07:35:27;;;;;;;4.00;2.85;;;14.00;99.90;;;;;;7388640;19;20207;-82
2023/10/19 07:37:56;;;;;;;2.65;2.45;;;14.00;99.90;;;;;;7401039;19;20126;-82
2023/10/19 07:40:23;;;;;;;3.92;2.97;;;14.00;99.90;;;;;;7397260;19;20155;-85
2023/10/19 07:42:51;;;;;;;4.20;2.90;;;14.10;99.90;;;;;;7395657;19;20153;-83
2023/10/19 07:45:21;;;;;;;6.15;3.30;;;14.10;99.90;;;;;;7391418;19;20645;-85
2023/10/19 07:47:47;;;;;;;4.20;3.45;;;14.20;99.90;;;;;;7393974;19;20198;-82
2023/10/19 07:50:17;;;;;;;5.55;3.53;;;14.30;99.90;;;;;;7390790;19;20214;-83
2023/10/19 07:52:48;;;;;;;7.38;3.05;;;14.40;99.90;;;;;;7392437;19;20499;-80
2023/10/19 07:55:15;;;;;;;3.83;3.10;;;14.40;99.90;;;;;;7388772;19;20139;-85
2023/10/19 07:57:42;;;;;;;6.72;3.45;;;14.30;99.90;;;;;;7395945;19;20205;-82
2023/10/19 08:00:09;;;;;;;4.10;3.33;;;14.30;99.90;;;;;;7393881;19;20172;-82
2023/10/19 08:02:37;;;;;;;4.47;2.70;;;14.30;99.90;;;;;;7396513;19;20135;-82
2023/10/19 08:05:06;;;;;;;4.05;3.50;;;14.40;99.90;;;;;;7390499;19;20161;-80
2023/10/19 08:07:34;;;;;;;4.55;3.30;;;14.40;99.90;;;;;;7389455;19;20183;-81
2023/10/19 08:10:00;;;;;;;4.15;3.13;;;14.40;99.90;;;;;;7396911;19;20135;-80
2023/10/19 08:12:26;;;;;;;3.78;3.10;;;14.50;99.90;;;;;;7394723;19;20275;-85
2023/10/19 08:14:55;;;;;;;4.55;3.45;;;14.50;99.90;;;;;;7402442;19;20623;-82
2023/10/19 08:17:23;;;;;;;4.00;3.47;;;14.50;99.90;;;;;;7399341;19;20206;-81
2023/10/19 08:19:52;;;;;;;3.42;3.05;;;14.60;99.90;;;;;;7395630;19;20171;-81
2023/10/19 08:22:19;;;;;;;3.45;3.08;;;14.60;99.90;;;;;;7393961;19;20150;-81
2023/10/19 08:24:45;;;;;;;5.40;3.90;;;14.70;99.90;;;;;;7393753;19;20161;-80
2023/10/19 08:27:12;;;;;;;3.92;3.38;;;14.70;99.90;;;;;;7392009;19;20147;-80
2023/10/19 08:29:39;;;;;;;4.20;3.15;;;14.70;99.90;;;;;;7395612;19;20699;-83
2023/10/19 08:32:07;;;;;;;4.82;3.85;;;14.70;99.90;;;;;;7395969;19;20160;-82
2023/10/19 08:34:37;;;;;;;3.90;2.92;;;14.80;99.90;;;;;;7394943;19;20142;-79
2023/10/19 08:37:04;;;;;;;4.38;3.53;;;14.70;99.90;;;;;;7401426;19;20146;-81
2023/10/19 08:39:36;;;;;;;3.97;3.47;;;14.80;99.90;;;;;;7396618;19;20147;-82
2023/10/19 08:42:04;;;;;;;4.85;3.05;;;14.80;99.90;;;;;;7401565;19;20157;-80
2023/10/19 08:44:30;;;;;;;5.20;3.65;;;14.90;99.90;;;;;;7401166;19;20138;-83
2023/10/19 08:46:57;;;;;;;4.10;3.10;;;14.90;99.90;;;;;;7406136;19;20135;-79
2023/10/19 08:49:23;;;;;;;4.53;3.78;;;15.10;99.90;;;;;;7395106;19;20147;-83
2023/10/19 08:51:51;;;;;;;5.25;3.75;;;15.10;99.90;;;;;;7407298;19;20214;-79
2023/10/19 08:54:17;;;;;;;4.53;3.50;;;15.20;99.90;;;;;;7398787;19;20138;-82
2023/10/19 08:56:44;;;;;;;3.65;3.00;;;15.20;99.90;;;;;;7395370;19;20139;-83
2023/10/19 08:59:11;;;;;;;3.95;3.10;;;15.10;99.90;;;;;;7396378;19;20238;-81
2023/10/19 09:01:37;;;;;;;4.32;3.40;;;15.20;99.90;;;;;;7393784;19;20174;-83
2023/10/19 09:04:07;;;;;;;4.25;2.80;;;15.20;99.90;;;;;;7396446;19;20233;-82
2023/10/19 09:06:42;;;;;;;3.72;3.35;;;15.30;99.90;;;;;;7394356;19;20176;-83
2023/10/19 09:09:19;;;;;;;4.88;3.88;;;15.50;99.90;;;;;;7394655;19;20253;-82
2023/10/19 09:11:46;;;;;;;4.82;3.22;;;15.70;99.90;;;;;;7395185;19;20135;-81
2023/10/19 09:14:13;;;;;;;4.10;3.35;;;15.70;99.90;;;;;;7395302;19;20584;-80
2023/10/19 09:16:57;;;;;;;3.88;3.00;;;15.70;99.90;;;;;;7393799;19;20497;-82
2023/10/19 09:19:40;;;;;;;5.18;3.08;;;15.70;99.90;;;;;;7392882;19;20183;-81
2023/10/19 09:22:18;;;;;;;2.40;2.20;;;15.80;99.90;;;;;;7396347;19;20650;-82
2023/10/19 09:24:49;;;;;;;3.90;3.42;;;15.90;99.90;;;;;;7393516;19;20187;-83
2023/10/19 09:27:22;;;;;;;3.33;2.90;;;15.90;99.90;;;;;;7395993;19;20150;-80
2023/10/19 09:29:48;;;;;;;4.10;3.00;;;16.00;99.90;;;;;;7397335;19;20520;-82
2023/10/19 09:32:14;;;;;;;4.18;3.40;;;16.10;99.90;;;;;;7393087;19;20147;-82
2023/10/19 09:34:43;;;;;;;4.10;2.70;;;16.10;99.90;;;;;;7391642;19;20146;-81
2023/10/19 09:37:10;;;;;;;3.88;2.83;;;16.20;99.90;;;;;;7392700;19;20135;-82
2023/10/19 09:39:36;;;;;;;4.30;3.20;;;16.20;99.90;;;;;;7395748;19;20168;-81
2023/10/19 09:42:11;;;;;;;4.65;3.13;;;16.30;99.90;;;;;;7392878;19;20661;-82
2023/10/19 09:44:44;;;;;;;3.33;2.72;;;16.40;99.90;;;;;;7392598;19;20139;-82
2023/10/19 09:47:14;;;;;;;3.47;2.67;;;16.40;99.90;;;;;;7390631;19;20153;-79
2023/10/19 09:49:44;;;;;;;3.03;2.53;;;16.50;99.90;;;;;;7393629;19;20150;-81
2023/10/19 09:52:13;;;;;;;3.30;2.65;;;16.50;99.90;;;;;;7393250;19;20161;-80
2023/10/19 09:54:47;;;;;;;3.72;2.30;;;16.50;99.90;;;;;;7393732;19;20150;-81
2023/10/19 09:57:19;;;;;;;5.13;3.92;;;16.60;99.90;;;;;;7394394;19;20481;-81
2023/10/19 09:59:50;;;;;;;5.35;3.58;;;16.50;99.90;;;;;;7395112;19;20135;-81
2023/10/19 10:02:17;;;;;;;3.92;2.85;;;16.50;99.90;;;;;;7395819;19;20157;-79
2023/10/19 10:04:45;;;;;;;2.45;2.25;;;16.40;99.90;;;;;;7392445;19;20150;-82
2023/10/19 10:07:11;;;;;;;2.20;2.00;;;16.40;99.90;;;;;;7392517;19;20624;-81
2023/10/19 10:09:44;;;;;;;2.65;2.25;;;16.40;99.90;;;;;;7394391;19;20138;-81
2023/10/19 10:12:28;;;;;;;2.13;1.83;;;16.50;99.90;;;;;;7393605;19;20142;-80
2023/10/19 10:15:02;;;;;;;2.83;2.25;;;16.50;99.90;;;;;;7396453;19;20154;-81
2023/10/19 10:17:28;;;;;;;2.47;2.20;;;16.70;99.90;;;;;;7391161;19;20569;-82
2023/10/19 10:19:56;;;;;;;3.88;2.35;;;16.70;99.90;;;;;;7391363;19;20145;-79
2023/10/19 10:22:23;;;;;;;6.38;4.78;;;16.80;99.90;;;;;;7391803;19;20213;-81
2023/10/19 10:24:55;;;;;;;4.43;3.13;;;16.70;99.90;;;;;;7394920;19;20139;-79
2023/10/19 10:27:21;;;;;;;3.67;2.63;;;16.70;99.90;;;;;;7389807;19;20498;-81
2023/10/19 10:30:06;;;;;;;2.67;2.47;;;16.70;99.90;;;;;;7392261;19;20169;-81
2023/10/19 10:32:56;;;;;;;3.38;2.42;;;16.70;99.90;;;;;;7391532;19;20143;-84
2023/10/19 10:35:53;;;;;;;5.88;2.28;;;16.80;99.90;;;;;;7391154;19;20146;-80
2023/10/19 10:38:21;;;;;;;2.95;2.22;;;16.80;99.90;;;;;;7390561;19;20151;-81
2023/10/19 10:40:49;;;;;;;2.50;2.15;;;16.90;99.90;;;;;;7391604;19;20142;-81
2023/10/19 10:43:16;;;;;;;2.13;1.90;;;17.00;99.90;;;;;;7389469;19;20178;-79
2023/10/19 10:45:42;;;;;;;4.43;2.35;;;17.00;99.90;;;;;;7390010;19;20625;-82
2023/10/19 10:48:21;;;;;;;3.40;2.00;;;17.00;99.90;;;;;;7392108;19;20779;-81
2023/10/19 10:50:46;;;;;;;1.70;1.60;;;16.90;99.90;;;;;;7391954;19;20145;-80
2023/10/19 10:53:17;;;;;;;1.95;1.83;;;16.90;99.90;;;;;;7390685;19;20146;-81
2023/10/19 10:55:43;;;;;;;2.20;1.90;;;16.80;99.90;;;;;;7389065;19;20171;-80
2023/10/19 10:58:09;;;;;;;5.75;4.35;;;16.90;99.90;;;;;;7389988;19;20143;-80
2023/10/19 11:00:42;;;;;;;2.70;2.20;;;16.80;99.90;;;;;;7390850;19;20155;-79
2023/10/19 11:03:09;;;;;;;1.85;1.42;;;16.80;99.90;;;;;;7388954;19;20218;-80
2023/10/19 11:05:36;;;;;;;4.53;2.20;;;16.80;99.90;;;;;;7387155;19;20193;-79
2023/10/19 11:08:21;;;;;;;2.05;1.40;;;16.80;99.90;;;;;;7387841;19;20158;-80
2023/10/19 11:10:48;;;;;;;2.10;1.45;;;16.80;99.90;;;;;;7387683;19;20146;-80
2023/10/19 11:13:15;;;;;;;3.13;1.55;;;16.80;99.90;;;;;;7391604;19;20480;-79
2023/10/19 11:15:53;;;;;;;2.30;1.45;;;16.80;99.90;;;;;;7388466;19;20608;-79
2023/10/19 11:18:30;;;;;;;0.95;0.85;;;16.80;99.90;;;;;;7391997;19;20141;-79
2023/10/19 11:20:59;;;;;;;1.17;1.08;;;16.90;99.90;;;;;;7389143;19;20134;-79
2023/10/19 11:23:54;;;;;;;1.40;1.05;;;16.90;99.90;;;;;;7389207;19;20202;-81
2023/10/19 11:26:22;;;;;;;2.28;1.67;;;16.80;99.90;;;;;;7388518;19;20145;-81
2023/10/19 11:28:58;;;;;;;2.53;2.33;;;16.80;99.90;;;;;;7386288;19;20471;-81
2023/10/19 11:31:24;;;;;;;6.38;4.18;;;16.70;99.90;;;;;;7390137;19;20146;-81
2023/10/19 11:33:51;;;;;;;2.35;1.98;;;16.70;99.90;;;;;;7391066;19;20130;-83
2023/10/19 11:36:20;;;;;;;3.53;2.53;;;16.60;99.90;;;;;;7391844;19;20137;-82
2023/10/19 11:38:54;;;;;;;4.07;2.65;;;16.60;99.90;;;;;;7397544;19;20157;-82
2023/10/19 11:41:20;;;;;;;2.08;1.58;;;16.60;99.90;;;;;;7388358;19;20473;-81
2023/10/19 11:43:48;;;;;;;4.43;3.30;;;16.60;99.90;;;;;;7399999;19;20587;-78
2023/10/19 11:46:25;;;;;;;2.40;1.15;;;16.60;99.90;;;;;;7397327;19;20147;-80
2023/10/19 11:48:50;;;;;;;2.10;1.30;;;16.60;99.90;;;;;;7396458;19;20442;-81
2023/10/19 11:51:16;;;;;;;2.42;1.70;;;16.50;99.90;;;;;;7397116;19;20130;-80
2023/10/19 11:53:44;;;;;;;1.05;0.88;;;16.60;99.90;;;;;;7396888;19;20142;-82
2023/10/19 11:56:12;;;;;;;1.88;1.05;;;16.50;99.90;;;;;;7399307;19;20134;-78
2023/10/19 11:58:41;;;;;;;0.90;0.77;;;16.40;99.90;;;;;;7397232;19;20447;-80
2023/10/19 12:01:08;;;;;;;1.08;0.98;;;16.40;99.90;;;;;;7394197;19;20146;-79
2023/10/19 12:03:39;;;;;;;1.85;1.27;;;16.40;99.90;;;;;;7397324;19;20611;-79
2023/10/19 12:06:08;;;;;;;1.95;0.80;;;16.40;99.90;;;;;;7395432;19;20186;-80
2023/10/19 12:08:38;;;;;;;1.08;0.68;;;16.30;99.90;;;;;;7399136;19;20601;-79
2023/10/19 12:11:14;;;;;;;1.08;0.73;;;16.30;99.90;;;;;;7397626;19;20139;-80
2023/10/19 12:13:44;;;;;;;2.63;1.20;;;16.30;99.90;;;;;;7398578;19;20623;-78
2023/10/19 12:16:12;;;;;;;1.15;0.90;;;16.40;99.90;;;;;;7395843;19;20138;-78
2023/10/19 12:18:42;;;;;;;0.85;0.85;;;16.40;99.90;;;;;;7395352;19;20142;-77
2023/10/19 12:21:11;;;;;;;1.40;1.30;;;16.30;99.90;;;;;;7397602;19;20138;-77
2023/10/19 12:23:40;;;;;;;1.25;1.05;;;16.30;99.90;;;;;;7394440;19;20176;-76
2023/10/19 12:26:10;;;;;;;1.10;1.00;;;16.20;99.90;;;;;;7395490;19;20616;-79
2023/10/19 12:28:40;;;;;;;1.83;1.30;;;16.20;99.90;;;;;;7393968;19;20187;-79
2023/10/19 12:31:10;;;;;;;1.83;1.20;;;16.20;99.90;;;;;;7398061;19;20135;-80
2023/10/19 12:33:38;;;;;;;1.20;1.10;;;16.20;99.90;;;;;;7395321;19;20648;-80
2023/10/19 12:36:23;;;;;;;2.33;1.63;;;16.20;99.90;;;;;;7395043;19;20135;-78
2023/10/19 12:38:49;;;;;;;1.63;1.52;;;16.30;99.90;;;;;;7395840;19;20159;-80
2023/10/19 12:41:15;;;;;;;2.15;1.80;;;16.20;99.90;;;;;;7394091;19;20671;-79
2023/10/19 12:43:41;;;;;;;1.83;1.20;;;16.30;99.90;;;;;;7395435;19;20163;-79
2023/10/19 12:46:08;;;;;;;1.08;0.98;;;16.30;99.90;;;;;;7394534;19;20151;-78
2023/10/19 12:48:35;;;;;;;2.83;1.38;;;16.30;99.90;;;;;;7391730;19;20126;-77
2023/10/19 12:51:07;;;;;;;2.15;1.20;;;16.20;99.90;;;;;;7399077;19;20636;-80
2023/10/19 12:53:33;;;;;;;3.42;1.33;;;16.10;99.90;;;;;;7393499;19;20138;-78
2023/10/19 12:55:59;;;;;;;1.40;1.30;;;16.20;99.90;;;;;;7394017;19;20502;-80
2023/10/19 12:58:27;;;;;;;1.38;1.27;;;16.10;99.90;;;;;;7396626;19;20143;-79
2023/10/19 13:00:55;;;;;;;1.50;1.40;;;16.10;99.90;;;;;;7394208;19;20163;-79
2023/10/19 13:03:21;;;;;;;1.67;1.45;;;16.00;99.90;;;;;;7395623;19;20162;-78
2023/10/19 13:05:49;;;;;;;1.70;1.60;;;16.00;99.90;;;;;;7392800;19;20182;-78
2023/10/19 13:08:16;;;;;;;3.10;1.63;;;16.00;99.90;;;;;;7396396;19;20141;-78
2023/10/19 13:10:43;;;;;;;2.10;1.70;;;16.00;99.90;;;;;;7392912;19;20142;-78
2023/10/19 13:13:12;;;;;;;2.50;1.80;;;16.00;99.90;;;;;;7396288;19;20131;-80
2023/10/19 13:15:41;;;;;;;1.67;1.30;;;16.00;99.90;;;;;;7394744;19;20138;-77
2023/10/19 13:18:13;;;;;;;1.10;1.00;;;16.00;99.90;;;;;;7396517;19;20462;-79
2023/10/19 13:20:40;;;;;;;1.40;1.25;;;16.00;99.90;;;;;;7393176;19;20185;-79
2023/10/19 13:23:11;;;;;;;2.13;1.48;;;16.00;99.90;;;;;;7395669;19;20902;-80
2023/10/19 13:28:20;;;;;;;1.40;1.13;;;16.00;99.90;;;;;;7394949;19;20856;-80
2023/10/19 13:30:53;;;;;;;1.27;1.00;;;16.00;99.90;;;;;;7393074;19;20139;-79
2023/10/19 13:33:21;;;;;;;3.05;1.58;;;16.00;99.90;;;;;;7392269;19;20185;-79